Time,TemperatureF,DewpointF,PressureIn,WindDirection,WindDirectionDegrees,WindSpeedMPH,WindSpeedGustMPH,Humidity,HourlyPrecipIn,Conditions,Clouds,dailyrainin,SolarRadiationWatts/m^2,SoftwareType,DateUTC
2013-01-26 00:02:00,34.0,20.0,-100.00,West,267,7.0,18.0,55,0.00,,,0.00,0.000000,,2013-01-26 07:02:00,
2013-01-26 00:12:00,34.0,20.0,-100.00,West,267,7.0,18.0,55,0.00,,,0.00,0.000000,,2013-01-26 07:12:00,
2013-01-26 00:21:00,34.0,20.0,-100.00,West,267,7.0,18.0,55,0.00,,,0.00,0.000000,,2013-01-26 07:21:00,
2013-01-26 00:33:00,34.0,20.0,-100.00,West,267,7.0,18.0,55,0.00,,,0.00,0.000000,,2013-01-26 07:33:00,
2013-01-26 00:52:00,34.0,20.0,-100.00,SW,215,11.0,23.0,57,0.00,,,0.00,0.000000,,2013-01-26 07:52:00,
2013-01-26 01:02:00,34.0,20.0,-100.00,SW,215,11.0,23.0,57,0.00,,,0.00,0.000000,,2013-01-26 08:02:00,
2013-01-26 01:11:00,34.0,20.0,-100.00,SW,215,11.0,23.0,57,0.00,,,0.00,0.000000,,2013-01-26 08:11:00,
2013-01-26 01:21:00,34.0,20.0,-100.00,SW,215,11.0,23.0,57,0.00,,,0.00,0.000000,,2013-01-26 08:21:00,
2013-01-26 01:32:00,34.0,20.0,-100.00,SW,215,11.0,23.0,57,0.00,,,0.00,0.000000,,2013-01-26 08:32:00,
2013-01-26 01:54:00,33.0,21.0,-100.00,SW,224,14.0,27.0,62,0.00,,,0.00,0.000000,,2013-01-26 08:54:00,
2013-01-26 02:02:00,33.0,21.0,-100.00,SW,224,14.0,27.0,62,0.00,,,0.00,0.000000,,2013-01-26 09:02:00,
2013-01-26 02:11:00,33.0,21.0,-100.00,SW,224,14.0,27.0,62,0.00,,,0.00,0.000000,,2013-01-26 09:11:00,
2013-01-26 02:22:00,33.0,21.0,-100.00,SW,224,14.0,27.0,62,0.00,,,0.00,0.000000,,2013-01-26 09:22:00,
2013-01-26 02:32:00,33.0,21.0,-100.00,SW,224,14.0,27.0,62,0.00,,,0.00,0.000000,,2013-01-26 09:32:00,
2013-01-26 02:52:00,33.0,21.0,-100.00,SW,233,16.0,33.0,60,0.00,,,0.00,0.000000,,2013-01-26 09:52:00,
2013-01-26 03:01:00,33.0,21.0,-100.00,SW,233,16.0,33.0,60,0.00,,,0.00,0.000000,,2013-01-26 10:01:00,
2013-01-26 03:12:00,33.0,21.0,-100.00,SW,233,16.0,33.0,60,0.00,,,0.00,0.000000,,2013-01-26 10:12:00,
2013-01-26 03:21:00,33.0,21.0,-100.00,SW,233,16.0,33.0,60,0.00,,,0.00,0.000000,,2013-01-26 10:21:00,
2013-01-26 03:31:00,33.0,21.0,-100.00,SW,233,16.0,33.0,60,0.00,,,0.00,0.000000,,2013-01-26 10:31:00,
2013-01-26 03:52:00,32.0,20.0,-100.00,SSW,207,6.0,28.0,60,0.00,,,0.00,0.000000,,2013-01-26 10:52:00,
2013-01-26 04:01:00,32.0,20.0,-100.00,SSW,207,6.0,28.0,60,0.00,,,0.00,0.000000,,2013-01-26 11:01:00,
2013-01-26 04:12:00,32.0,20.0,-100.00,SSW,207,6.0,28.0,60,0.00,,,0.00,0.000000,,2013-01-26 11:12:00,
2013-01-26 04:22:00,32.0,20.0,-100.00,SSW,207,6.0,28.0,60,0.00,,,0.00,0.000000,,2013-01-26 11:22:00,
2013-01-26 04:32:00,32.0,20.0,-100.00,SSW,207,6.0,28.0,60,0.00,,,0.00,0.000000,,2013-01-26 11:32:00,
2013-01-26 04:52:00,33.0,21.0,-100.00,West,280,6.0,17.0,61,0.00,,,0.00,0.000000,,2013-01-26 11:52:00,
2013-01-26 05:02:00,33.0,21.0,-100.00,West,280,6.0,17.0,61,0.00,,,0.00,0.000000,,2013-01-26 12:02:00,
2013-01-26 05:12:00,33.0,21.0,-100.00,West,280,6.0,17.0,61,0.00,,,0.00,0.000000,,2013-01-26 12:12:00,
2013-01-26 05:22:00,33.0,21.0,-100.00,West,280,6.0,17.0,61,0.00,,,0.00,0.000000,,2013-01-26 12:22:00,
2013-01-26 05:33:00,33.0,21.0,-100.00,West,280,6.0,17.0,61,0.00,,,0.00,0.000000,,2013-01-26 12:33:00,
2013-01-26 05:53:00,33.0,21.0,-100.00,South,174,4.0,13.0,62,0.00,,,0.00,0.000000,,2013-01-26 12:53:00,
2013-01-26 06:03:00,33.0,21.0,-100.00,South,174,4.0,13.0,62,0.00,,,0.00,0.000000,,2013-01-26 13:03:00,
2013-01-26 06:12:00,33.0,21.0,-100.00,South,174,4.0,13.0,62,0.00,,,0.00,0.000000,,2013-01-26 13:12:00,
2013-01-26 06:22:00,33.0,21.0,-100.00,South,174,4.0,13.0,62,0.00,,,0.00,0.000000,,2013-01-26 13:22:00,
2013-01-26 06:32:00,33.0,21.0,-100.00,South,174,4.0,13.0,62,0.00,,,0.00,0.000000,,2013-01-26 13:32:00,
2013-01-26 06:53:00,33.0,21.0,-100.00,West,280,7.0,30.0,60,0.00,,,0.00,0.000000,,2013-01-26 13:53:00,
2013-01-26 07:03:00,33.0,21.0,-100.00,West,280,7.0,30.0,60,0.00,,,0.00,0.000000,,2013-01-26 14:03:00,
2013-01-26 07:12:00,33.0,21.0,-100.00,West,280,7.0,30.0,60,0.00,,,0.00,0.000000,,2013-01-26 14:12:00,
2013-01-26 07:22:00,33.0,21.0,-100.00,West,280,7.0,30.0,60,0.00,,,0.00,0.000000,,2013-01-26 14:22:00,
2013-01-26 07:32:00,33.0,21.0,-100.00,West,280,7.0,30.0,60,0.00,,,0.00,0.000000,,2013-01-26 14:32:00,
2013-01-26 07:53:00,35.0,20.0,-100.00,SSE,155,5.0,10.0,53,0.00,,,0.00,3.000000,,2013-01-26 14:53:00,
2013-01-26 08:03:00,35.0,20.0,-100.00,SSE,155,5.0,10.0,53,0.00,,,0.00,3.000000,,2013-01-26 15:03:00,
2013-01-26 08:12:00,35.0,20.0,-100.00,SSE,155,5.0,10.0,53,0.00,,,0.00,3.000000,,2013-01-26 15:12:00,
2013-01-26 08:22:00,35.0,20.0,-100.00,SSE,155,5.0,10.0,53,0.00,,,0.00,3.000000,,2013-01-26 15:22:00,
2013-01-26 08:32:00,35.0,20.0,-100.00,SSE,155,5.0,10.0,53,0.00,,,0.00,3.000000,,2013-01-26 15:32:00,
2013-01-26 08:53:00,37.0,22.0,-100.00,South,184,4.0,15.0,55,0.00,,,0.00,68.000000,,2013-01-26 15:53:00,
2013-01-26 09:02:00,37.0,22.0,-100.00,South,184,4.0,15.0,55,0.00,,,0.00,68.000000,,2013-01-26 16:02:00,
2013-01-26 09:12:00,37.0,22.0,-100.00,South,184,4.0,15.0,55,0.00,,,0.00,68.000000,,2013-01-26 16:12:00,
2013-01-26 09:22:00,37.0,22.0,-100.00,South,184,4.0,15.0,55,0.00,,,0.00,68.000000,,2013-01-26 16:22:00,
2013-01-26 09:32:00,37.0,22.0,-100.00,South,184,4.0,15.0,55,0.00,,,0.00,68.000000,,2013-01-26 16:32:00,
2013-01-26 09:53:00,37.0,23.0,-100.00,ENE,64,2.0,13.0,57,0.00,,,0.00,133.000000,,2013-01-26 16:53:00,
2013-01-26 10:03:00,37.0,23.0,-100.00,ENE,64,2.0,13.0,57,0.00,,,0.00,133.000000,,2013-01-26 17:03:00,
2013-01-26 10:13:00,37.0,23.0,-100.00,ENE,64,2.0,13.0,57,0.00,,,0.00,133.000000,,2013-01-26 17:13:00,
2013-01-26 10:22:00,37.0,23.0,-100.00,ENE,64,2.0,13.0,57,0.00,,,0.00,133.000000,,2013-01-26 17:22:00,
2013-01-26 10:33:00,37.0,23.0,-100.00,ENE,64,2.0,13.0,57,0.00,,,0.00,133.000000,,2013-01-26 17:33:00,
2013-01-26 10:53:00,38.0,25.0,-100.00,East,91,3.0,7.0,58,0.00,,,0.00,170.000000,,2013-01-26 17:53:00,
2013-01-26 11:02:00,38.0,25.0,-100.00,East,91,3.0,7.0,58,0.00,,,0.00,170.000000,,2013-01-26 18:02:00,
2013-01-26 11:12:00,38.0,25.0,-100.00,East,91,3.0,7.0,58,0.00,,,0.00,170.000000,,2013-01-26 18:12:00,
2013-01-26 11:22:00,38.0,25.0,-100.00,East,91,3.0,7.0,58,0.00,,,0.00,170.000000,,2013-01-26 18:22:00,
2013-01-26 11:33:00,38.0,25.0,-100.00,East,91,3.0,7.0,58,0.00,,,0.00,170.000000,,2013-01-26 18:33:00,
2013-01-26 11:53:00,43.0,24.0,-100.00,North,358,4.0,10.0,47,0.00,,,0.00,565.000000,,2013-01-26 18:53:00,
2013-01-26 12:03:00,43.0,24.0,-100.00,North,358,4.0,10.0,47,0.00,,,0.00,565.000000,,2013-01-26 19:03:00,
2013-01-26 12:12:00,43.0,24.0,-100.00,North,358,4.0,10.0,47,0.00,,,0.00,565.000000,,2013-01-26 19:12:00,
2013-01-26 12:22:00,43.0,24.0,-100.00,North,358,4.0,10.0,47,0.00,,,0.00,565.000000,,2013-01-26 19:22:00,
2013-01-26 12:32:00,43.0,24.0,-100.00,North,358,4.0,10.0,47,0.00,,,0.00,565.000000,,2013-01-26 19:32:00,
2013-01-26 12:53:00,41.0,25.0,-100.00,North,6,4.0,9.0,53,0.00,,,0.00,311.000000,,2013-01-26 19:53:00,
2013-01-26 13:02:00,41.0,25.0,-100.00,North,6,4.0,9.0,53,0.00,,,0.00,311.000000,,2013-01-26 20:02:00,
2013-01-26 13:11:00,41.0,25.0,-100.00,North,6,4.0,9.0,53,0.00,,,0.00,311.000000,,2013-01-26 20:11:00,
2013-01-26 13:22:00,41.0,25.0,-100.00,North,6,4.0,9.0,53,0.00,,,0.00,311.000000,,2013-01-26 20:22:00,
2013-01-26 13:32:00,41.0,25.0,-100.00,North,6,4.0,9.0,53,0.00,,,0.00,311.000000,,2013-01-26 20:32:00,
2013-01-26 13:52:00,40.0,26.0,-100.00,NW,323,5.0,10.0,57,0.00,,,0.00,251.000000,,2013-01-26 20:52:00,
2013-01-26 14:02:00,40.0,26.0,-100.00,NW,323,5.0,10.0,57,0.00,,,0.00,251.000000,,2013-01-26 21:02:00,
2013-01-26 14:12:00,40.0,26.0,-100.00,NW,323,5.0,10.0,57,0.00,,,0.00,251.000000,,2013-01-26 21:12:00,
2013-01-26 14:22:00,40.0,26.0,-100.00,NW,323,5.0,10.0,57,0.00,,,0.00,251.000000,,2013-01-26 21:22:00,
2013-01-26 14:32:00,40.0,26.0,-100.00,NW,323,5.0,10.0,57,0.00,,,0.00,251.000000,,2013-01-26 21:32:00,
2013-01-26 14:52:00,40.0,28.0,-100.00,NNW,331,5.0,10.0,61,0.00,,,0.00,240.000000,,2013-01-26 21:52:00,
2013-01-26 15:01:00,40.0,28.0,-100.00,NNW,331,5.0,10.0,61,0.00,,,0.00,240.000000,,2013-01-26 22:01:00,
2013-01-26 15:12:00,40.0,28.0,-100.00,NNW,331,5.0,10.0,61,0.00,,,0.00,240.000000,,2013-01-26 22:12:00,
2013-01-26 15:22:00,40.0,28.0,-100.00,NNW,331,5.0,10.0,61,0.00,,,0.00,240.000000,,2013-01-26 22:22:00,
2013-01-26 15:32:00,40.0,28.0,-100.00,NNW,331,5.0,10.0,61,0.00,,,0.00,240.000000,,2013-01-26 22:32:00,
2013-01-26 15:52:00,39.0,28.0,-100.00,NE,48,3.0,10.0,65,0.00,,,0.00,164.000000,,2013-01-26 22:52:00,
2013-01-26 16:01:00,39.0,28.0,-100.00,NE,48,3.0,10.0,65,0.00,,,0.00,164.000000,,2013-01-26 23:01:00,
2013-01-26 16:12:00,39.0,28.0,-100.00,NE,48,3.0,10.0,65,0.00,,,0.00,164.000000,,2013-01-26 23:12:00,
2013-01-26 16:22:00,39.0,28.0,-100.00,NE,48,3.0,10.0,65,0.00,,,0.00,164.000000,,2013-01-26 23:22:00,
2013-01-26 16:32:00,39.0,28.0,-100.00,NE,48,3.0,10.0,65,0.00,,,0.00,164.000000,,2013-01-26 23:32:00,
2013-01-26 16:52:00,36.0,30.0,-100.00,SE,141,3.0,8.0,80,0.00,,,0.00,54.000000,,2013-01-26 23:52:00,
2013-01-26 17:02:00,36.0,30.0,-100.00,SE,141,3.0,8.0,80,0.00,,,0.00,54.000000,,2013-01-27 00:02:00,
2013-01-26 17:11:00,36.0,30.0,-100.00,SE,141,3.0,8.0,80,0.00,,,0.00,54.000000,,2013-01-27 00:11:00,
2013-01-26 17:21:00,36.0,30.0,-100.00,SE,141,3.0,8.0,80,0.00,,,0.00,54.000000,,2013-01-27 00:21:00,
2013-01-26 17:32:00,36.0,30.0,-100.00,SE,141,3.0,8.0,80,0.00,,,0.00,54.000000,,2013-01-27 00:32:00,
2013-01-26 17:52:00,33.0,31.0,-100.00,ESE,120,4.0,8.0,92,0.00,,,0.00,8.000000,,2013-01-27 00:52:00,
2013-01-26 18:01:00,33.0,31.0,-100.00,ESE,120,4.0,8.0,92,0.00,,,0.00,8.000000,,2013-01-27 01:01:00,
2013-01-26 18:11:00,33.0,31.0,-100.00,ESE,120,4.0,8.0,92,0.00,,,0.00,8.000000,,2013-01-27 01:11:00,
2013-01-26 18:22:00,33.0,31.0,-100.00,ESE,120,4.0,8.0,92,0.00,,,0.00,8.000000,,2013-01-27 01:22:00,
2013-01-26 18:32:00,33.0,31.0,-100.00,ESE,120,4.0,8.0,92,0.00,,,0.00,8.000000,,2013-01-27 01:32:00,
2013-01-26 18:52:00,32.0,31.0,-100.00,North,5,1.0,6.0,95,0.00,,,0.00,0.000000,,2013-01-27 01:52:00,
2013-01-26 19:01:00,32.0,31.0,-100.00,North,5,1.0,6.0,95,0.00,,,0.00,0.000000,,2013-01-27 02:01:00,
2013-01-26 19:12:00,32.0,31.0,-100.00,North,5,1.0,6.0,95,0.00,,,0.00,0.000000,,2013-01-27 02:12:00,
2013-01-26 19:22:00,32.0,31.0,-100.00,North,5,1.0,6.0,95,0.00,,,0.00,0.000000,,2013-01-27 02:22:00,
2013-01-26 19:31:00,32.0,31.0,-100.00,North,5,1.0,6.0,95,0.00,,,0.00,0.000000,,2013-01-27 02:31:00,
2013-01-26 19:52:00,32.0,31.0,-100.00,ESE,104,2.0,5.0,97,0.00,,,0.00,0.000000,,2013-01-27 02:52:00,
2013-01-26 20:02:00,32.0,31.0,-100.00,ESE,104,2.0,5.0,97,0.00,,,0.00,0.000000,,2013-01-27 03:02:00,
2013-01-26 20:11:00,32.0,31.0,-100.00,ESE,104,2.0,5.0,97,0.00,,,0.00,0.000000,,2013-01-27 03:11:00,
2013-01-26 20:21:00,32.0,31.0,-100.00,ESE,104,2.0,5.0,97,0.00,,,0.00,0.000000,,2013-01-27 03:21:00,
2013-01-26 20:32:00,32.0,31.0,-100.00,ESE,104,2.0,5.0,97,0.00,,,0.00,0.000000,,2013-01-27 03:32:00,
2013-01-26 20:52:00,32.0,31.0,-100.00,WNW,283,7.0,23.0,95,0.00,,,0.00,0.000000,,2013-01-27 03:52:00,
2013-01-26 21:02:00,32.0,31.0,-100.00,WNW,283,7.0,23.0,95,0.00,,,0.00,0.000000,,2013-01-27 04:02:00,
2013-01-26 21:11:00,32.0,31.0,-100.00,WNW,283,7.0,23.0,95,0.00,,,0.00,0.000000,,2013-01-27 04:11:00,
2013-01-26 21:21:00,32.0,31.0,-100.00,WNW,283,7.0,23.0,95,0.00,,,0.00,0.000000,,2013-01-27 04:21:00,
2013-01-26 21:32:00,32.0,31.0,-100.00,WNW,283,7.0,23.0,95,0.00,,,0.00,0.000000,,2013-01-27 04:32:00,
2013-01-26 21:52:00,36.0,28.0,-100.00,SW,232,11.0,21.0,72,0.00,,,0.00,0.000000,,2013-01-27 04:52:00,
2013-01-26 22:03:00,36.0,28.0,-100.00,SW,232,11.0,21.0,72,0.00,,,0.00,0.000000,,2013-01-27 05:03:00,
2013-01-26 22:12:00,36.0,28.0,-100.00,SW,232,11.0,21.0,72,0.00,,,0.00,0.000000,,2013-01-27 05:12:00,
2013-01-26 22:22:00,36.0,28.0,-100.00,SW,232,11.0,21.0,72,0.00,,,0.00,0.000000,,2013-01-27 05:22:00,
2013-01-26 22:32:00,36.0,28.0,-100.00,SW,232,11.0,21.0,72,0.00,,,0.00,0.000000,,2013-01-27 05:32:00,
2013-01-26 22:52:00,36.0,27.0,-100.00,SW,214,13.0,29.0,69,0.02,,,0.02,0.000000,,2013-01-27 05:52:00,
2013-01-26 23:01:00,36.0,27.0,-100.00,SW,214,13.0,29.0,69,0.02,,,0.02,0.000000,,2013-01-27 06:01:00,
2013-01-26 23:11:00,36.0,27.0,-100.00,SW,214,13.0,29.0,69,0.02,,,0.02,0.000000,,2013-01-27 06:11:00,
2013-01-26 23:21:00,36.0,27.0,-100.00,SW,214,13.0,29.0,69,0.02,,,0.02,0.000000,,2013-01-27 06:21:00,
2013-01-26 23:32:00,36.0,27.0,-100.00,SW,214,13.0,29.0,69,0.02,,,0.02,0.000000,,2013-01-27 06:32:00,
2013-01-26 23:52:00,34.0,25.0,-100.00,SW,216,17.0,36.0,70,0.01,,,0.03,0.000000,,2013-01-27 06:52:00,